createdAt,value
2017-10-17T00:00:20.058Z,100994.83
2017-10-17T00:01:25.511Z,100999.33
2017-10-17T00:02:31.704Z,100999.34
2017-10-17T00:03:37.020Z,100995.52
2017-10-17T00:04:42.109Z,100998.50
2017-10-17T00:05:47.988Z,100991.95
2017-10-17T00:06:53.094Z,100995.27
2017-10-17T00:07:58.998Z,100992.70
2017-10-17T00:09:03.659Z,100986.91
2017-10-17T00:10:08.518Z,100989.47
2017-10-17T00:11:13.723Z,100992.22
2017-10-17T00:12:18.868Z,100991.38
2017-10-17T00:13:23.965Z,100986.53
2017-10-17T00:14:29.101Z,100984.45
2017-10-17T00:15:34.268Z,100990.05
2017-10-17T00:16:39.376Z,100987.05
2017-10-17T00:17:44.484Z,100983.45
2017-10-17T00:18:49.565Z,100989.28
2017-10-17T00:19:54.385Z,100981.73
2017-10-17T00:20:59.477Z,100983.45
2017-10-17T00:22:04.921Z,100987.26
2017-10-17T00:23:09.781Z,100988.59
2017-10-17T00:24:15.393Z,100985.63
2017-10-17T00:25:20.469Z,100984.39
2017-10-17T00:26:25.867Z,100985.63
2017-10-17T00:27:30.745Z,100987.95
2017-10-17T00:28:35.852Z,100982.70
2017-10-17T00:29:40.925Z,100979.98
2017-10-17T00:30:46.519Z,100981.88
2017-10-17T00:31:51.496Z,100981.94
2017-10-17T00:33:00.968Z,100985.69
2017-10-17T00:34:05.824Z,100983.51
2017-10-17T00:35:30.800Z,100984.50
2017-10-17T00:36:35.630Z,100985.42
2017-10-17T00:37:40.873Z,100984.61
2017-10-17T00:38:49.181Z,100978.20
2017-10-17T00:39:54.793Z,100978.41
2017-10-17T00:40:59.619Z,100981.59
2017-10-17T00:42:04.708Z,100981.44
2017-10-17T00:43:22.892Z,100985.23
2017-10-17T00:44:28.032Z,100978.50
2017-10-17T00:45:33.269Z,100980.78
2017-10-17T00:46:39.362Z,100987.71
2017-10-17T00:47:44.285Z,100988.70
2017-10-17T00:48:49.132Z,100985.76
2017-10-17T00:49:54.233Z,100984.25
2017-10-17T00:51:00.516Z,100985.58
2017-10-17T00:52:06.051Z,100985.72
2017-10-17T00:53:10.877Z,100982.63
2017-10-17T00:54:15.700Z,100987.80
2017-10-17T00:55:20.525Z,100986.86
2017-10-17T00:56:26.020Z,100986.37
2017-10-17T00:57:30.982Z,100986.10
2017-10-17T00:58:36.327Z,100983.81
2017-10-17T00:59:42.352Z,100984.72
2017-10-17T01:00:47.577Z,100985.77
2017-10-17T01:01:52.492Z,100981.92
2017-10-17T01:02:57.609Z,100984.77
2017-10-17T01:04:02.745Z,100983.20
2017-10-17T01:05:07.809Z,100982.69
2017-10-17T01:06:13.641Z,100974.80
2017-10-17T01:07:19.336Z,100982.12
2017-10-17T01:08:24.160Z,100979.83
2017-10-17T01:09:29.256Z,100980.16
2017-10-17T01:10:34.383Z,100976.75
2017-10-17T01:11:39.492Z,100978.89
2017-10-17T01:12:45.529Z,100971.44
2017-10-17T01:13:51.445Z,100977.17
2017-10-17T01:14:56.534Z,100965.00
2017-10-17T01:16:01.654Z,100970.92
2017-10-17T01:17:06.840Z,100968.69
2017-10-17T01:18:12.265Z,100967.64
2017-10-17T01:19:17.348Z,100963.05
2017-10-17T01:20:24.602Z,100967.66
2017-10-17T01:21:30.610Z,100970.59
2017-10-17T01:22:35.497Z,100966.46
2017-10-17T01:23:47.929Z,100966.46
2017-10-17T01:24:52.834Z,100964.28
2017-10-17T01:26:04.188Z,100969.97
2017-10-17T01:27:09.317Z,100970.11
2017-10-17T01:28:14.176Z,100964.85
2017-10-17T01:29:19.036Z,100960.62
2017-10-17T01:30:24.655Z,100960.91
2017-10-17T01:31:30.072Z,100963.86
2017-10-17T01:32:35.190Z,100961.77
2017-10-17T01:33:40.037Z,100961.77
2017-10-17T01:34:47.252Z,100961.43
2017-10-17T01:35:52.349Z,100958.64
2017-10-17T01:36:58.259Z,100962.11
2017-10-17T01:39:59.714Z,100958.80
2017-10-17T01:41:04.538Z,100961.16
2017-10-17T01:42:09.357Z,100956.09
2017-10-17T01:43:14.848Z,100963.59
2017-10-17T01:44:26.174Z,100965.39
2017-10-17T01:45:35.020Z,100958.36
2017-10-17T01:46:54.849Z,100958.56
2017-10-17T01:48:00.817Z,100963.83
2017-10-17T01:49:10.594Z,100962.64
2017-10-17T01:50:19.682Z,100956.42
2017-10-17T01:51:27.074Z,100968.03
2017-10-17T01:52:31.895Z,100961.03
2017-10-17T01:53:43.858Z,100959.03
2017-10-17T01:55:01.449Z,100959.59
2017-10-17T01:56:07.680Z,100960.16
2017-10-17T01:57:12.800Z,100960.30
2017-10-17T01:58:22.897Z,100954.34
2017-10-17T01:59:35.196Z,100951.91
2017-10-17T02:00:40.782Z,100953.53
2017-10-17T02:01:45.909Z,100945.34
2017-10-17T02:02:51.013Z,100948.16
2017-10-17T02:03:56.123Z,100953.05
2017-10-17T02:05:02.373Z,100944.58
2017-10-17T02:06:08.209Z,100951.72
2017-10-17T02:07:14.584Z,100951.25
2017-10-17T02:08:20.181Z,100955.84
2017-10-17T02:09:25.248Z,100951.58
2017-10-17T02:10:30.372Z,100952.15
2017-10-17T02:11:35.501Z,100956.22
2017-10-17T02:12:40.881Z,100956.50
2017-10-17T02:13:46.032Z,100951.81
2017-10-17T02:14:50.861Z,100955.12
2017-10-17T02:15:56.770Z,100948.68
2017-10-17T02:17:01.845Z,100954.47
2017-10-17T02:19:41.896Z,100950.66
2017-10-17T02:20:47.026Z,100949.67
2017-10-17T02:21:59.692Z,100955.27
2017-10-17T02:23:04.510Z,100949.76
2017-10-17T02:24:10.733Z,100957.01
2017-10-17T02:25:19.934Z,100951.76
2017-10-17T02:26:26.688Z,100957.44
2017-10-17T02:27:32.266Z,100955.03
2017-10-17T02:28:42.725Z,100954.47
2017-10-17T02:30:02.081Z,100955.34
2017-10-17T02:31:06.929Z,100956.05
2017-10-17T02:32:12.307Z,100956.73
2017-10-17T02:33:19.914Z,100960.48
2017-10-17T02:35:56.650Z,100954.16
2017-10-17T02:37:02.596Z,100950.66
2017-10-17T02:38:08.243Z,100956.05
2017-10-17T02:39:14.153Z,100950.94
2017-10-17T02:40:19.323Z,100952.13
2017-10-17T02:41:25.589Z,100954.44
2017-10-17T02:42:30.474Z,100948.23
2017-10-17T02:43:39.682Z,100952.41
2017-10-17T02:44:44.844Z,100944.64
2017-10-17T02:45:50.756Z,100942.55
2017-10-17T02:46:59.356Z,100942.41
2017-10-17T02:48:09.101Z,100949.33
2017-10-17T02:49:27.207Z,100940.61
2017-10-17T02:50:32.058Z,100937.81
2017-10-17T02:51:37.210Z,100940.89
2017-10-17T02:52:43.839Z,100943.97
2017-10-17T02:53:49.033Z,100941.31
2017-10-17T02:54:53.928Z,100935.53
2017-10-17T02:55:59.088Z,100933.92
2017-10-17T02:57:04.244Z,100934.34
2017-10-17T02:58:10.532Z,100936.38
2017-10-17T02:59:16.916Z,100932.79
2017-10-17T03:00:21.771Z,100930.37
2017-10-17T03:01:50.148Z,100940.22
2017-10-17T03:02:55.003Z,100933.39
2017-10-17T03:04:00.634Z,100930.53
2017-10-17T03:05:08.824Z,100935.89
2017-10-17T03:06:13.791Z,100938.55
2017-10-17T03:07:18.689Z,100935.70
2017-10-17T03:08:24.599Z,100935.55
2017-10-17T03:09:29.750Z,100930.81
2017-10-17T03:10:36.015Z,100933.89
2017-10-17T03:11:41.103Z,100927.88
2017-10-17T03:12:46.239Z,100928.81
2017-10-17T03:14:20.303Z,100928.95
2017-10-17T03:17:02.057Z,100929.78
2017-10-17T03:18:11.286Z,100928.41
2017-10-17T03:19:16.431Z,100933.06
2017-10-17T03:20:22.806Z,100927.08
2017-10-17T03:21:43.893Z,100920.92
2017-10-17T03:22:48.550Z,100921.35
2017-10-17T03:24:00.713Z,100928.32
2017-10-17T03:25:18.749Z,100916.47
2017-10-17T03:26:24.862Z,100918.98
2017-10-17T03:27:29.733Z,100918.81
2017-10-17T03:28:39.421Z,100920.09
2017-10-17T03:29:45.118Z,100918.56
2017-10-17T03:30:50.564Z,100919.47
2017-10-17T03:31:56.489Z,100919.89
2017-10-17T03:33:06.394Z,100919.80
2017-10-17T03:34:24.019Z,100920.36
2017-10-17T03:35:29.170Z,100916.61
2017-10-17T03:36:41.308Z,100913.96
2017-10-17T03:38:10.624Z,100911.22
2017-10-17T03:39:15.457Z,100917.59
2017-10-17T03:40:25.891Z,100919.74
2017-10-17T03:41:35.122Z,100912.41
2017-10-17T03:42:40.002Z,100916.47
2017-10-17T03:43:54.653Z,100911.87
2017-10-17T03:45:03.901Z,100903.44
2017-10-17T03:46:08.760Z,100906.34
2017-10-17T03:47:14.974Z,100909.36
2017-10-17T03:48:20.470Z,100905.07
2017-10-17T03:49:38.816Z,100906.91
2017-10-17T03:50:44.711Z,100906.14
2017-10-17T03:51:51.868Z,100905.24
2017-10-17T03:53:05.653Z,100903.55
2017-10-17T03:54:12.031Z,100898.61
2017-10-17T03:55:17.700Z,100897.20
2017-10-17T03:56:26.003Z,100902.78
2017-10-17T03:57:30.880Z,100902.92
2017-10-17T03:58:51.900Z,100907.61
2017-10-17T04:00:00.024Z,100901.03
2017-10-17T04:01:04.911Z,100905.66
2017-10-17T04:02:10.856Z,100908.66
2017-10-17T04:03:16.469Z,100903.06
2017-10-17T04:06:09.245Z,100902.89
2017-10-17T04:09:06.289Z,100905.88
2017-10-17T04:11:52.854Z,100907.90
2017-10-17T04:13:12.297Z,100903.08
2017-10-17T04:14:34.627Z,100907.82
2017-10-17T04:15:39.733Z,100900.80
2017-10-17T04:17:09.984Z,100907.95
2017-10-17T04:18:29.984Z,100905.88
2017-10-17T04:19:40.953Z,100910.92
2017-10-17T04:20:46.555Z,100905.88
2017-10-17T04:23:33.454Z,100908.05
2017-10-17T04:24:42.809Z,100905.95
2017-10-17T04:26:01.832Z,100905.88
2017-10-17T04:30:21.843Z,100909.65
2017-10-17T04:31:42.024Z,100907.98
2017-10-17T04:33:06.101Z,100911.06
2017-10-17T04:34:20.538Z,100909.30
2017-10-17T04:35:25.312Z,100908.69
2017-10-17T04:36:47.392Z,100910.01
2017-10-17T04:37:52.245Z,100917.25
2017-10-17T04:38:57.852Z,100913.08
2017-10-17T04:40:13.381Z,100912.52
2017-10-17T04:41:22.912Z,100910.83
2017-10-17T04:42:56.185Z,100914.75
2017-10-17T04:46:12.893Z,100912.15
2017-10-17T04:47:20.337Z,100915.00
2017-10-17T04:50:55.215Z,100911.28
2017-10-17T04:52:03.339Z,100917.45
2017-10-17T04:53:15.494Z,100913.81
2017-10-17T04:54:29.128Z,100917.37
2017-10-17T04:55:54.483Z,100911.36
2017-10-17T04:57:03.812Z,100915.21
2017-10-17T04:58:08.635Z,100911.84
2017-10-17T05:00:51.422Z,100910.93
2017-10-17T05:02:00.384Z,100909.54
2017-10-17T05:03:08.516Z,100908.16
2017-10-17T05:06:11.339Z,100907.31
2017-10-17T05:09:14.376Z,100908.55
2017-10-17T05:10:49.067Z,100904.87
2017-10-17T05:11:54.318Z,100904.59
2017-10-17T05:14:40.859Z,100905.89
2017-10-17T05:15:55.901Z,100905.28
2017-10-17T05:18:51.892Z,100921.30
2017-10-17T05:20:04.972Z,100919.38
2017-10-17T05:21:10.056Z,100919.02
2017-10-17T05:22:17.980Z,100917.00
2017-10-17T05:23:28.304Z,100916.58
2017-10-17T05:24:34.504Z,100914.63
2017-10-17T05:25:39.444Z,100916.23
2017-10-17T05:26:45.037Z,100918.75
2017-10-17T05:29:25.489Z,100911.91
2017-10-17T05:30:49.724Z,100915.19
2017-10-17T05:31:56.100Z,100910.29
2017-10-17T05:34:51.594Z,100915.31
2017-10-17T05:35:56.463Z,100912.59
2017-10-17T05:37:13.029Z,100919.13
2017-10-17T05:38:18.661Z,100916.57
2017-10-17T05:39:24.299Z,100921.59
2017-10-17T05:40:30.217Z,100919.38
2017-10-17T05:41:35.417Z,100927.10
2017-10-17T05:42:41.108Z,100921.72
2017-10-17T05:45:38.808Z,100914.33
2017-10-17T05:46:44.503Z,100919.91
2017-10-17T05:47:49.380Z,100924.56
2017-10-17T05:49:14.762Z,100929.67
2017-10-17T05:50:36.945Z,100925.55
2017-10-17T05:51:42.061Z,100925.19
2017-10-17T05:52:47.611Z,100929.88
2017-10-17T05:53:53.386Z,100928.89
2017-10-17T05:54:59.167Z,100921.16
2017-10-17T05:56:04.949Z,100927.21
2017-10-17T05:57:11.507Z,100929.25
2017-10-17T05:58:17.144Z,100936.77
2017-10-17T05:59:22.922Z,100933.28
2017-10-17T06:00:28.700Z,100939.50
2017-10-17T06:01:34.292Z,100930.16
2017-10-17T06:02:40.085Z,100927.93
2017-10-17T06:03:45.712Z,100927.43
2017-10-17T06:04:51.504Z,100935.45
2017-10-17T06:05:58.055Z,100931.48
2017-10-17T06:07:03.839Z,100936.98
2017-10-17T06:08:09.629Z,100936.38
2017-10-17T06:09:16.940Z,100937.61
2017-10-17T06:10:22.726Z,100936.38
2017-10-17T06:11:28.502Z,100936.10
2017-10-17T06:12:34.296Z,100935.13
2017-10-17T06:13:40.079Z,100944.73
2017-10-17T06:14:45.965Z,100946.48
2017-10-17T06:15:51.569Z,100947.38
2017-10-17T06:16:58.124Z,100939.86
2017-10-17T06:18:03.907Z,100939.78
2017-10-17T06:19:09.701Z,100942.30
2017-10-17T06:20:17.053Z,100939.70
2017-10-17T06:21:22.659Z,100938.37
2017-10-17T06:22:28.452Z,100940.34
2017-10-17T06:23:34.249Z,100941.81
2017-10-17T06:24:39.851Z,100938.31
2017-10-17T06:25:45.730Z,100944.28
2017-10-17T06:26:51.514Z,100940.09
2017-10-17T06:27:57.304Z,100943.08
2017-10-17T06:29:03.100Z,100945.59
2017-10-17T06:30:08.892Z,100944.89
2017-10-17T06:31:14.712Z,100948.47
2017-10-17T06:32:20.503Z,100945.13
2017-10-17T06:33:25.950Z,100948.74
2017-10-17T06:34:31.747Z,100947.23
2017-10-17T06:35:38.311Z,100949.52
2017-10-17T06:36:44.891Z,100946.73
2017-10-17T06:37:50.693Z,100947.98
2017-10-17T06:38:57.062Z,100951.68
2017-10-17T06:40:03.606Z,100948.55
2017-10-17T06:41:10.163Z,100954.40
2017-10-17T06:42:15.976Z,100952.09
2017-10-17T06:43:22.608Z,100955.11
2017-10-17T06:44:28.387Z,100954.07
2017-10-17T06:45:34.181Z,100952.17
2017-10-17T06:46:40.364Z,100957.15
2017-10-17T06:47:46.004Z,100957.38
2017-10-17T06:48:51.790Z,100955.97
2017-10-17T06:49:57.565Z,100961.70
2017-10-17T06:51:03.026Z,100960.44
2017-10-17T06:52:08.826Z,100955.55
2017-10-17T06:53:15.404Z,100962.73
2017-10-17T06:54:20.859Z,100965.82
2017-10-17T06:55:26.659Z,100964.55
2017-10-17T06:56:33.243Z,100965.44
2017-10-17T06:57:39.037Z,100970.55
2017-10-17T06:58:44.857Z,100972.84
2017-10-17T06:59:50.639Z,100965.51
2017-10-17T07:00:57.185Z,100970.90
2017-10-17T07:02:02.969Z,100972.48
2017-10-17T07:03:08.760Z,100972.20
2017-10-17T07:04:14.571Z,100973.47
2017-10-17T07:05:20.397Z,100974.91
2017-10-17T07:06:26.179Z,100969.14
2017-10-17T07:07:31.976Z,100973.74
2017-10-17T07:08:37.766Z,100979.11
2017-10-17T07:09:43.583Z,100972.25
2017-10-17T07:10:49.369Z,100977.64
2017-10-17T07:11:55.172Z,100974.91
2017-10-17T07:13:00.958Z,100971.91
2017-10-17T07:14:07.517Z,100972.20
2017-10-17T07:15:13.321Z,100972.11
2017-10-17T07:16:19.104Z,100970.92
2017-10-17T07:17:24.885Z,100980.02
2017-10-17T07:18:30.689Z,100973.06
2017-10-17T07:19:37.980Z,100975.02
2017-10-17T07:20:44.551Z,100975.16
2017-10-17T07:21:50.343Z,100981.09
2017-10-17T07:22:56.184Z,100977.30
2017-10-17T07:24:01.640Z,100981.97
2017-10-17T07:25:08.064Z,100977.59
2017-10-17T07:26:14.907Z,100978.04
2017-10-17T07:27:20.519Z,100972.53
2017-10-17T07:28:27.080Z,100976.23
2017-10-17T07:29:33.107Z,100971.03
2017-10-17T07:30:38.908Z,100970.17
2017-10-17T07:31:44.729Z,100969.47
2017-10-17T07:32:50.521Z,100972.95
2017-10-17T07:33:56.316Z,100970.16
2017-10-17T07:35:02.307Z,100976.83
2017-10-17T07:36:08.539Z,100979.81
2017-10-17T07:37:14.356Z,100976.78
2017-10-17T07:38:20.145Z,100971.78
2017-10-17T07:39:25.934Z,100962.20
2017-10-17T07:40:32.495Z,100969.44
2017-10-17T07:41:39.048Z,100969.71
2017-10-17T07:42:45.631Z,100970.56
2017-10-17T07:43:51.411Z,100968.30
2017-10-17T07:44:57.188Z,100962.98
2017-10-17T07:46:03.757Z,100962.13
2017-10-17T07:47:10.318Z,100966.88
2017-10-17T07:48:16.723Z,100964.19
2017-10-17T07:49:22.495Z,100949.16
2017-10-17T07:50:28.116Z,100958.92
2017-10-17T07:51:33.906Z,100962.33
2017-10-17T07:52:39.683Z,100962.55
2017-10-17T07:53:45.488Z,100965.86
2017-10-17T07:54:51.301Z,100961.78
2017-10-17T07:55:57.075Z,100961.63
2017-10-17T07:57:02.677Z,100959.54
2017-10-17T07:58:09.240Z,100964.88
2017-10-17T07:59:15.814Z,100972.69
2017-10-17T08:00:22.309Z,100970.76
2017-10-17T08:01:28.117Z,100970.52
2017-10-17T08:02:33.941Z,100963.94
2017-10-17T08:03:39.729Z,100970.66
2017-10-17T08:04:45.391Z,100963.48
2017-10-17T08:05:50.514Z,100956.30
2017-10-17T08:06:56.135Z,100962.33
2017-10-17T08:08:01.504Z,100954.27
2017-10-17T08:09:07.141Z,100957.89
2017-10-17T08:10:12.945Z,100958.74
2017-10-17T08:11:18.720Z,100954.66
2017-10-17T08:12:24.334Z,100957.43
2017-10-17T08:13:30.107Z,100954.41
2017-10-17T08:14:35.903Z,100955.09
2017-10-17T08:15:41.717Z,100955.72
2017-10-17T08:16:47.501Z,100954.39
2017-10-17T08:17:53.283Z,100959.73
2017-10-17T08:18:59.065Z,100956.16
2017-10-17T08:20:05.630Z,100958.34
2017-10-17T08:21:12.229Z,100955.20
2017-10-17T08:22:18.297Z,100961.91
2017-10-17T08:23:24.098Z,100947.81
2017-10-17T08:24:29.877Z,100957.06
2017-10-17T08:25:35.680Z,100949.95
2017-10-17T08:26:41.498Z,100949.66
2017-10-17T08:27:48.063Z,100957.64
2017-10-17T08:28:54.635Z,100957.59
2017-10-17T08:30:00.431Z,100963.09
2017-10-17T08:31:06.231Z,100964.53
2017-10-17T08:32:12.059Z,100958.08
2017-10-17T08:33:17.851Z,100961.96
2017-10-17T08:34:23.636Z,100960.31
2017-10-17T08:35:30.192Z,100956.22
2017-10-17T08:36:36.767Z,100959.28
2017-10-17T08:37:42.245Z,100960.80
2017-10-17T08:38:47.857Z,100960.94
2017-10-17T08:39:53.649Z,100957.81
2017-10-17T08:40:59.436Z,100960.22
2017-10-17T08:42:05.239Z,100958.46
2017-10-17T08:43:11.061Z,100960.73
2017-10-17T08:44:17.257Z,100959.00
2017-10-17T08:45:23.829Z,100965.68
2017-10-17T08:46:29.662Z,100955.52
2017-10-17T08:47:35.320Z,100963.84
2017-10-17T08:48:41.145Z,100958.08
2017-10-17T08:49:46.769Z,100960.17
2017-10-17T08:50:53.163Z,100957.53
2017-10-17T08:51:58.789Z,100957.33
2017-10-17T08:53:04.432Z,100964.95
2017-10-17T08:54:10.102Z,100961.45
2017-10-17T08:55:15.818Z,100954.95
2017-10-17T08:56:21.729Z,100960.79
2017-10-17T08:57:28.098Z,100959.71
2017-10-17T08:58:33.885Z,100960.20
2017-10-17T08:59:39.522Z,100958.66
2017-10-17T09:00:45.334Z,100956.06
2017-10-17T09:01:51.136Z,100957.34
2017-10-17T09:02:56.940Z,100957.77
2017-10-17T09:04:02.732Z,100961.20
2017-10-17T09:05:09.321Z,100955.80
2017-10-17T09:06:15.142Z,100957.27
2017-10-17T09:07:21.698Z,100956.95
2017-10-17T09:08:28.882Z,100960.62
2017-10-17T09:09:35.446Z,100950.91
2017-10-17T09:10:42.044Z,100951.97
2017-10-17T09:11:47.657Z,100955.60
2017-10-17T09:12:53.439Z,100951.31
2017-10-17T09:13:59.238Z,100955.14
2017-10-17T09:15:04.690Z,100951.91
2017-10-17T09:16:10.745Z,100955.66
2017-10-17T09:17:16.541Z,100955.94
2017-10-17T09:18:22.928Z,100954.81
2017-10-17T09:19:28.728Z,100954.86
2017-10-17T09:20:36.017Z,100951.87
2017-10-17T09:21:42.593Z,100953.59
2017-10-17T09:22:49.151Z,100947.98
2017-10-17T09:23:55.557Z,100952.89
2017-10-17T09:25:01.349Z,100947.31
2017-10-17T09:26:08.700Z,100945.68
2017-10-17T09:27:15.366Z,100947.08
2017-10-17T09:28:22.179Z,100947.79
2017-10-17T09:30:38.574Z,100938.87
2017-10-17T09:31:44.827Z,100936.45
2017-10-17T09:32:51.080Z,100942.05
2017-10-17T09:33:57.131Z,100941.34
2017-10-17T09:35:03.192Z,100941.87
2017-10-17T09:36:09.432Z,100943.12
2017-10-17T09:37:15.374Z,100942.13
2017-10-17T09:38:21.353Z,100936.65
2017-10-17T09:39:27.188Z,100938.30
2017-10-17T09:40:32.789Z,100939.69
2017-10-17T09:41:38.444Z,100937.23
2017-10-17T09:42:44.485Z,100938.70
2017-10-17T09:43:50.365Z,100939.77
2017-10-17T09:44:56.192Z,100944.04
2017-10-17T09:46:01.991Z,100943.33
2017-10-17T09:47:08.548Z,100942.61
2017-10-17T09:48:15.096Z,100940.01
2017-10-17T09:49:20.964Z,100944.84
2017-10-17T09:50:27.530Z,100942.23
2017-10-17T09:51:34.106Z,100945.81
2017-10-17T09:52:39.928Z,100946.67
2017-10-17T09:53:46.318Z,100941.45
2017-10-17T09:54:52.197Z,100946.01
2017-10-17T09:55:59.017Z,100942.01
2017-10-17T09:57:04.809Z,100942.28
2017-10-17T09:58:10.593Z,100942.30
2017-10-17T09:59:16.446Z,100939.17
2017-10-17T10:00:22.362Z,100933.02
2017-10-17T10:01:28.736Z,100934.80
2017-10-17T10:02:34.535Z,100940.23
2017-10-17T10:03:40.320Z,100942.49
2017-10-17T10:04:45.952Z,100938.91
2017-10-17T10:05:52.531Z,100940.33
2017-10-17T10:06:58.186Z,100939.78
2017-10-17T10:08:03.796Z,100942.57
2017-10-17T10:09:10.347Z,100933.16
2017-10-17T10:10:16.891Z,100942.97
2017-10-17T10:11:23.480Z,100934.72
2017-10-17T10:12:29.099Z,100936.22
2017-10-17T10:13:35.660Z,100933.46
2017-10-17T10:14:42.032Z,100935.02
2017-10-17T10:15:47.820Z,100928.75
2017-10-17T10:16:53.656Z,100929.53
2017-10-17T10:17:59.447Z,100922.63
2017-10-17T10:19:06.018Z,100930.62
2017-10-17T10:20:11.807Z,100928.55
2017-10-17T10:21:17.595Z,100925.86
2017-10-17T10:22:24.207Z,100925.07
2017-10-17T10:23:30.008Z,100929.39
2017-10-17T10:24:35.629Z,100926.16
2017-10-17T10:25:42.180Z,100928.70
2017-10-17T10:26:47.839Z,100922.50
2017-10-17T10:27:54.416Z,100924.75
2017-10-17T10:29:00.227Z,100927.80
2017-10-17T10:30:06.775Z,100925.09
2017-10-17T10:31:12.590Z,100926.49
2017-10-17T10:32:18.375Z,100916.80
2017-10-17T10:33:25.170Z,100919.91
2017-10-17T10:34:31.032Z,100920.88
2017-10-17T10:35:36.644Z,100918.09
2017-10-17T10:36:42.518Z,100914.38
2017-10-17T10:37:48.315Z,100914.94
2017-10-17T10:38:53.974Z,100915.56
2017-10-17T10:39:59.808Z,100916.13
2017-10-17T10:41:06.356Z,100914.30
2017-10-17T10:42:12.915Z,100909.96
2017-10-17T10:43:19.501Z,100915.80
2017-10-17T10:44:25.320Z,100908.13
2017-10-17T10:45:31.910Z,100912.99
2017-10-17T10:46:37.719Z,100908.63
2017-10-17T10:47:44.271Z,100910.20
2017-10-17T10:48:50.060Z,100910.41
2017-10-17T10:49:55.872Z,100908.04
2017-10-17T10:51:02.428Z,100909.08
2017-10-17T10:52:08.988Z,100909.05
2017-10-17T10:53:15.559Z,100903.16
2017-10-17T10:54:22.114Z,100909.98
2017-10-17T10:55:28.692Z,100903.83
2017-10-17T10:56:34.489Z,100903.06
2017-10-17T10:57:41.521Z,100905.66
2017-10-17T10:58:47.579Z,100901.31
2017-10-17T10:59:53.417Z,100904.26
2017-10-17T11:00:59.245Z,100902.14
2017-10-17T11:02:05.039Z,100901.80
2017-10-17T11:03:11.604Z,100896.34
2017-10-17T11:04:17.242Z,100897.61
2017-10-17T11:05:23.036Z,100890.33
2017-10-17T11:06:28.686Z,100894.78
2017-10-17T11:07:34.516Z,100890.73
2017-10-17T11:08:40.478Z,100888.13
2017-10-17T11:09:46.100Z,100888.72
2017-10-17T11:10:51.897Z,100878.31
2017-10-17T11:11:57.747Z,100880.83
2017-10-17T11:13:04.313Z,100879.69
2017-10-17T11:14:10.371Z,100874.47
2017-10-17T11:15:16.965Z,100874.59
2017-10-17T11:16:22.761Z,100881.14
2017-10-17T11:17:28.571Z,100874.89
2017-10-17T11:18:34.362Z,100874.33
2017-10-17T11:19:40.738Z,100877.08
2017-10-17T11:20:46.541Z,100870.11
2017-10-17T11:21:52.148Z,100864.25
2017-10-17T11:22:57.962Z,100862.77
2017-10-17T11:24:03.760Z,100867.72
2017-10-17T11:25:09.556Z,100859.75
2017-10-17T11:26:15.377Z,100859.53
2017-10-17T11:27:20.987Z,100856.46
2017-10-17T11:28:26.809Z,100855.03
2017-10-17T11:29:32.605Z,100855.84
2017-10-17T11:30:38.561Z,100851.65
2017-10-17T11:31:44.351Z,100850.84
2017-10-17T11:32:50.139Z,100850.87
2017-10-17T11:33:55.792Z,100853.50
2017-10-17T11:35:01.330Z,100850.50
2017-10-17T11:36:06.947Z,100852.80
2017-10-17T11:37:12.725Z,100850.62
2017-10-17T11:38:18.518Z,100850.90
2017-10-17T11:39:24.923Z,100848.20
2017-10-17T11:40:47.536Z,100847.28
2017-10-17T11:42:10.102Z,100844.91
2017-10-17T11:43:32.873Z,100844.56
2017-10-17T11:44:38.817Z,100844.38
2017-10-17T11:45:44.611Z,100848.20
2017-10-17T11:46:50.223Z,100839.95
2017-10-17T11:47:56.795Z,100839.22
2017-10-17T11:49:02.837Z,100840.92
2017-10-17T11:50:08.509Z,100840.02
2017-10-17T11:51:14.304Z,100842.88
2017-10-17T11:52:20.876Z,100838.63
2017-10-17T11:53:26.696Z,100835.12
2017-10-17T11:54:33.247Z,100831.32
2017-10-17T11:55:38.771Z,100829.86
2017-10-17T11:56:44.880Z,100833.80
2017-10-17T11:57:50.705Z,100830.11
2017-10-17T11:58:57.332Z,100824.55
2017-10-17T12:00:03.777Z,100823.84
2017-10-17T12:01:09.993Z,100816.98
2017-10-17T12:02:16.043Z,100821.86
2017-10-17T12:03:21.887Z,100816.16
2017-10-17T12:04:27.678Z,100814.39
2017-10-17T12:05:34.124Z,100810.99
2017-10-17T12:06:40.066Z,100805.83
2017-10-17T12:07:46.798Z,100803.43
2017-10-17T12:08:52.435Z,100813.17
2017-10-17T12:09:58.277Z,100806.45
2017-10-17T12:11:03.885Z,100795.70
2017-10-17T12:12:09.109Z,100797.23
2017-10-17T12:13:14.426Z,100798.51
2017-10-17T12:14:20.253Z,100792.73
2017-10-17T12:15:25.960Z,100796.23
2017-10-17T12:16:31.786Z,100798.00
2017-10-17T12:17:37.727Z,100793.46
2017-10-17T12:18:44.461Z,100790.77
2017-10-17T12:19:50.266Z,100788.69
2017-10-17T12:20:56.066Z,100786.83
2017-10-17T12:22:01.867Z,100782.41
2017-10-17T12:23:07.700Z,100783.76
2017-10-17T12:24:13.900Z,100778.69
2017-10-17T12:25:20.092Z,100779.19
2017-10-17T12:26:26.061Z,100777.02
2017-10-17T12:27:31.897Z,100776.71
2017-10-17T12:28:37.939Z,100782.52
2017-10-17T12:29:43.940Z,100772.03
2017-10-17T12:30:49.827Z,100771.31
2017-10-17T12:31:55.673Z,100767.08
2017-10-17T12:33:01.519Z,100772.17
2017-10-17T12:34:07.460Z,100765.55
2017-10-17T12:35:13.454Z,100759.27
2017-10-17T12:36:19.343Z,100764.24
2017-10-17T12:37:25.405Z,100762.70
2017-10-17T12:38:31.406Z,100758.56
2017-10-17T12:39:38.152Z,100757.95
2017-10-17T12:40:44.157Z,100757.53
2017-10-17T12:41:49.820Z,100749.88
2017-10-17T12:42:56.346Z,100755.56
2017-10-17T12:44:02.343Z,100753.31
2017-10-17T12:45:09.205Z,100753.11
2017-10-17T12:46:16.513Z,100751.53
2017-10-17T12:47:22.602Z,100744.20
2017-10-17T12:48:29.358Z,100748.77
2017-10-17T12:49:36.301Z,100743.88
2017-10-17T12:50:42.528Z,100738.72
2017-10-17T12:51:49.139Z,100740.18
2017-10-17T12:52:54.847Z,100734.88
2017-10-17T12:54:01.511Z,100737.27
2017-10-17T12:55:08.083Z,100734.67
2017-10-17T12:56:13.992Z,100731.25
2017-10-17T12:57:19.805Z,100727.23
2017-10-17T12:58:25.531Z,100724.41
2017-10-17T12:59:31.374Z,100725.56
2017-10-17T13:00:37.353Z,100716.88
2017-10-17T13:01:43.022Z,100721.94
2017-10-17T13:02:49.034Z,100722.77
2017-10-17T13:03:55.332Z,100716.45
2017-10-17T13:05:01.204Z,100715.72
2017-10-17T13:06:07.078Z,100713.45
2017-10-17T13:07:12.838Z,100713.53
2017-10-17T13:08:18.707Z,100714.38
2017-10-17T13:09:25.418Z,100706.20
2017-10-17T13:10:31.123Z,100710.85
2017-10-17T13:11:36.678Z,100699.55
2017-10-17T13:12:42.566Z,100702.25
2017-10-17T13:13:48.394Z,100701.42
2017-10-17T13:14:54.412Z,100699.73
2017-10-17T13:15:59.885Z,100696.66
2017-10-17T13:17:05.248Z,100704.00
2017-10-17T13:18:11.141Z,100700.44
2017-10-17T13:19:16.390Z,100696.66
2017-10-17T13:20:22.356Z,100690.52